Terminal Aerodrome Forecast
Issued by NWS

Home | Current Version | Previous Version | Text Only | Print | Product List | Glossary On
Versions: 1 2 3 4 5 6 7 8 9 10 11 12
000
FTUS41 KBTV 201121
TAFMPV
TAF
KMPV 201121Z 2012/2112 29008KT P6SM FEW200
     FM201500 30009G17KT P6SM SKC
     FM202200 32004KT P6SM SKC
     FM210100 00000KT P6SM SKC=

USA.gov is the U.S. government's official web portal to all federal, state and local government web resources and services.